sensor_id;sensor_type;location;lat;lon;timestamp;temperature;humidity
5689;DHT22;2869;50.432;8.680;2023-07-13T00:00:44;19.00;99.90
5689;DHT22;2869;50.432;8.680;2023-07-13T00:03:11;18.90;99.90
5689;DHT22;2869;50.432;8.680;2023-07-13T00:05:38;18.80;99.90
5689;DHT22;2869;50.432;8.680;2023-07-13T00:08:05;18.70;99.90
5689;DHT22;2869;50.432;8.680;2023-07-13T00:10:39;18.70;99.90
5689;DHT22;2869;50.432;8.680;2023-07-13T00:13:06;18.60;99.90
5689;DHT22;2869;50.432;8.680;2023-07-13T00:15:32;18.50;99.90
5689;DHT22;2869;50.432;8.680;2023-07-13T00:18:00;18.40;99.90
5689;DHT22;2869;50.432;8.680;2023-07-13T00:20:27;18.40;99.90
5689;DHT22;2869;50.432;8.680;2023-07-13T00:22:54;18.30;99.90
5689;DHT22;2869;50.432;8.680;2023-07-13T00:25:20;18.30;99.90
5689;DHT22;2869;50.432;8.680;2023-07-13T00:27:50;18.40;99.90
5689;DHT22;2869;50.432;8.680;2023-07-13T00:30:18;18.40;99.90
5689;DHT22;2869;50.432;8.680;2023-07-13T00:32:44;18.40;99.90
5689;DHT22;2869;50.432;8.680;2023-07-13T00:35:13;18.50;99.90
5689;DHT22;2869;50.432;8.680;2023-07-13T00:37:41;18.50;99.90
5689;DHT22;2869;50.432;8.680;2023-07-13T00:40:09;18.60;99.90
5689;DHT22;2869;50.432;8.680;2023-07-13T00:42:37;18.60;99.90
5689;DHT22;2869;50.432;8.680;2023-07-13T00:46:02;18.60;99.90
5689;DHT22;2869;50.432;8.680;2023-07-13T00:47:55;18.60;99.90
5689;DHT22;2869;50.432;8.680;2023-07-13T00:50:23;18.50;99.90
5689;DHT22;2869;50.432;8.680;2023-07-13T00:52:53;18.60;99.90
5689;DHT22;2869;50.432;8.680;2023-07-13T00:55:23;18.50;99.90
5689;DHT22;2869;50.432;8.680;2023-07-13T00:57:50;18.50;99.90
5689;DHT22;2869;50.432;8.680;2023-07-13T01:00:20;18.50;99.90
5689;DHT22;2869;50.432;8.680;2023-07-13T01:02:48;18.50;99.90
5689;DHT22;2869;50.432;8.680;2023-07-13T01:05:18;18.50;99.90
5689;DHT22;2869;50.432;8.680;2023-07-13T01:07:45;18.50;99.90
5689;DHT22;2869;50.432;8.680;2023-07-13T01:10:13;18.50;99.90
5689;DHT22;2869;50.432;8.680;2023-07-13T01:12:40;18.50;99.90
5689;DHT22;2869;50.432;8.680;2023-07-13T01:15:36;18.50;99.90
5689;DHT22;2869;50.432;8.680;2023-07-13T01:18:04;18.40;99.90
5689;DHT22;2869;50.432;8.680;2023-07-13T01:20:31;18.40;99.90
5689;DHT22;2869;50.432;8.680;2023-07-13T01:23:03;18.30;99.90
5689;DHT22;2869;50.432;8.680;2023-07-13T01:25:31;18.30;99.90
5689;DHT22;2869;50.432;8.680;2023-07-13T01:27:58;18.30;99.90
5689;DHT22;2869;50.432;8.680;2023-07-13T01:30:24;18.30;99.90
5689;DHT22;2869;50.432;8.680;2023-07-13T01:32:51;18.30;99.90
5689;DHT22;2869;50.432;8.680;2023-07-13T01:35:18;18.30;99.90
5689;DHT22;2869;50.432;8.680;2023-07-13T01:37:44;18.30;99.90
5689;DHT22;2869;50.432;8.680;2023-07-13T01:40:13;18.30;99.90
5689;DHT22;2869;50.432;8.680;2023-07-13T01:42:40;18.30;99.90
5689;DHT22;2869;50.432;8.680;2023-07-13T01:45:08;18.20;99.90
5689;DHT22;2869;50.432;8.680;2023-07-13T01:47:34;18.10;99.90
5689;DHT22;2869;50.432;8.680;2023-07-13T01:50:01;18.10;99.90
5689;DHT22;2869;50.432;8.680;2023-07-13T01:52:27;18.00;99.90
5689;DHT22;2869;50.432;8.680;2023-07-13T01:54:54;18.10;99.90
5689;DHT22;2869;50.432;8.680;2023-07-13T01:57:22;18.00;99.90
5689;DHT22;2869;50.432;8.680;2023-07-13T01:59:49;18.00;99.90
5689;DHT22;2869;50.432;8.680;2023-07-13T02:02:15;18.00;99.90
5689;DHT22;2869;50.432;8.680;2023-07-13T02:04:42;17.90;99.90
5689;DHT22;2869;50.432;8.680;2023-07-13T02:07:09;17.90;99.90
5689;DHT22;2869;50.432;8.680;2023-07-13T02:09:35;17.90;99.90
5689;DHT22;2869;50.432;8.680;2023-07-13T02:12:02;17.80;99.90
5689;DHT22;2869;50.432;8.680;2023-07-13T02:14:31;17.80;99.90
5689;DHT22;2869;50.432;8.680;2023-07-13T02:16:57;17.70;99.90
5689;DHT22;2869;50.432;8.680;2023-07-13T02:19:24;17.60;99.90
5689;DHT22;2869;50.432;8.680;2023-07-13T02:21:51;17.60;99.90
5689;DHT22;2869;50.432;8.680;2023-07-13T02:24:17;17.60;99.90
5689;DHT22;2869;50.432;8.680;2023-07-13T02:26:46;17.50;99.90
5689;DHT22;2869;50.432;8.680;2023-07-13T02:29:13;17.50;99.90
5689;DHT22;2869;50.432;8.680;2023-07-13T02:31:41;17.40;99.90
5689;DHT22;2869;50.432;8.680;2023-07-13T02:34:08;17.40;99.90
5689;DHT22;2869;50.432;8.680;2023-07-13T02:36:35;17.40;99.90
5689;DHT22;2869;50.432;8.680;2023-07-13T02:39:05;17.30;99.90
5689;DHT22;2869;50.432;8.680;2023-07-13T02:41:32;17.20;99.90
5689;DHT22;2869;50.432;8.680;2023-07-13T02:43:59;17.10;99.90
5689;DHT22;2869;50.432;8.680;2023-07-13T02:46:29;17.10;99.90
5689;DHT22;2869;50.432;8.680;2023-07-13T02:48:57;17.00;99.90
5689;DHT22;2869;50.432;8.680;2023-07-13T02:51:24;17.00;99.90
5689;DHT22;2869;50.432;8.680;2023-07-13T02:53:50;17.00;99.90
5689;DHT22;2869;50.432;8.680;2023-07-13T02:56:23;17.00;99.90
5689;DHT22;2869;50.432;8.680;2023-07-13T02:58:50;16.90;99.90
5689;DHT22;2869;50.432;8.680;2023-07-13T03:01:17;16.90;99.90
5689;DHT22;2869;50.432;8.680;2023-07-13T03:03:44;16.90;99.90
5689;DHT22;2869;50.432;8.680;2023-07-13T03:06:13;16.80;99.90
5689;DHT22;2869;50.432;8.680;2023-07-13T03:08:40;16.70;99.90
5689;DHT22;2869;50.432;8.680;2023-07-13T03:11:08;16.70;99.90
5689;DHT22;2869;50.432;8.680;2023-07-13T03:13:36;16.60;99.90
5689;DHT22;2869;50.432;8.680;2023-07-13T03:16:03;16.60;99.90
5689;DHT22;2869;50.432;8.680;2023-07-13T03:18:30;16.60;99.90
5689;DHT22;2869;50.432;8.680;2023-07-13T03:20:57;16.50;99.90
5689;DHT22;2869;50.432;8.680;2023-07-13T03:23:25;16.50;99.90
5689;DHT22;2869;50.432;8.680;2023-07-13T03:26:01;16.40;99.90
5689;DHT22;2869;50.432;8.680;2023-07-13T03:28:28;16.40;99.90
5689;DHT22;2869;50.432;8.680;2023-07-13T03:31:00;16.40;99.90
5689;DHT22;2869;50.432;8.680;2023-07-13T03:33:26;16.40;99.90
5689;DHT22;2869;50.432;8.680;2023-07-13T03:35:53;16.40;99.90
5689;DHT22;2869;50.432;8.680;2023-07-13T03:38:20;16.40;99.90
5689;DHT22;2869;50.432;8.680;2023-07-13T03:40:48;16.30;99.90
5689;DHT22;2869;50.432;8.680;2023-07-13T03:43:15;16.20;99.90
5689;DHT22;2869;50.432;8.680;2023-07-13T03:45:42;16.20;99.90
5689;DHT22;2869;50.432;8.680;2023-07-13T03:48:09;16.20;99.90
5689;DHT22;2869;50.432;8.680;2023-07-13T03:50:35;16.10;99.90
5689;DHT22;2869;50.432;8.680;2023-07-13T03:53:02;16.00;99.90
5689;DHT22;2869;50.432;8.680;2023-07-13T03:55:29;16.00;99.90
5689;DHT22;2869;50.432;8.680;2023-07-13T03:58:00;15.90;99.90
5689;DHT22;2869;50.432;8.680;2023-07-13T04:00:27;16.00;99.90
5689;DHT22;2869;50.432;8.680;2023-07-13T04:02:54;16.00;99.90
5689;DHT22;2869;50.432;8.680;2023-07-13T04:05:20;16.00;99.90
5689;DHT22;2869;50.432;8.680;2023-07-13T04:07:47;16.10;99.90
5689;DHT22;2869;50.432;8.680;2023-07-13T04:10:14;16.00;99.90
5689;DHT22;2869;50.432;8.680;2023-07-13T04:12:40;16.00;99.90
5689;DHT22;2869;50.432;8.680;2023-07-13T04:15:09;16.00;99.90
5689;DHT22;2869;50.432;8.680;2023-07-13T04:17:36;16.20;99.90
5689;DHT22;2869;50.432;8.680;2023-07-13T04:20:03;16.30;99.90
5689;DHT22;2869;50.432;8.680;2023-07-13T04:22:30;16.40;99.90
5689;DHT22;2869;50.432;8.680;2023-07-13T04:24:56;16.50;99.90
5689;DHT22;2869;50.432;8.680;2023-07-13T04:27:22;16.70;99.90
5689;DHT22;2869;50.432;8.680;2023-07-13T04:29:49;16.80;99.90
5689;DHT22;2869;50.432;8.680;2023-07-13T04:32:16;17.00;99.90
5689;DHT22;2869;50.432;8.680;2023-07-13T04:34:43;17.20;99.90
5689;DHT22;2869;50.432;8.680;2023-07-13T04:37:10;17.40;99.90
5689;DHT22;2869;50.432;8.680;2023-07-13T04:39:36;17.60;99.90
5689;DHT22;2869;50.432;8.680;2023-07-13T04:42:04;17.70;99.90
5689;DHT22;2869;50.432;8.680;2023-07-13T04:44:30;17.90;99.90
5689;DHT22;2869;50.432;8.680;2023-07-13T04:46:57;17.70;99.90
5689;DHT22;2869;50.432;8.680;2023-07-13T04:49:25;17.50;99.90
5689;DHT22;2869;50.432;8.680;2023-07-13T04:51:51;17.50;99.90
5689;DHT22;2869;50.432;8.680;2023-07-13T04:54:20;17.50;99.90
5689;DHT22;2869;50.432;8.680;2023-07-13T04:56:47;17.60;99.90
5689;DHT22;2869;50.432;8.680;2023-07-13T04:59:13;17.60;99.90
5689;DHT22;2869;50.432;8.680;2023-07-13T05:01:40;17.70;99.90
5689;DHT22;2869;50.432;8.680;2023-07-13T05:04:07;17.90;99.90
5689;DHT22;2869;50.432;8.680;2023-07-13T05:06:35;17.80;99.90
5689;DHT22;2869;50.432;8.680;2023-07-13T05:09:01;17.90;99.90
5689;DHT22;2869;50.432;8.680;2023-07-13T05:11:28;18.00;99.90
5689;DHT22;2869;50.432;8.680;2023-07-13T05:13:55;18.00;99.90
5689;DHT22;2869;50.432;8.680;2023-07-13T05:16:21;18.20;99.90
5689;DHT22;2869;50.432;8.680;2023-07-13T05:18:48;18.50;99.90
5689;DHT22;2869;50.432;8.680;2023-07-13T05:21:15;18.70;99.90
5689;DHT22;2869;50.432;8.680;2023-07-13T05:23:43;18.70;99.90
5689;DHT22;2869;50.432;8.680;2023-07-13T05:26:10;18.50;99.90
5689;DHT22;2869;50.432;8.680;2023-07-13T05:28:37;18.50;99.90
5689;DHT22;2869;50.432;8.680;2023-07-13T05:31:04;18.30;99.90
5689;DHT22;2869;50.432;8.680;2023-07-13T05:33:32;18.20;99.90
5689;DHT22;2869;50.432;8.680;2023-07-13T05:35:58;18.10;99.90
5689;DHT22;2869;50.432;8.680;2023-07-13T05:38:26;18.10;99.90
5689;DHT22;2869;50.432;8.680;2023-07-13T05:40:55;18.20;99.90
5689;DHT22;2869;50.432;8.680;2023-07-13T05:43:22;18.30;99.90
5689;DHT22;2869;50.432;8.680;2023-07-13T05:45:50;18.40;99.90
5689;DHT22;2869;50.432;8.680;2023-07-13T05:48:17;18.70;99.90
5689;DHT22;2869;50.432;8.680;2023-07-13T05:50:44;18.90;99.90
5689;DHT22;2869;50.432;8.680;2023-07-13T05:53:11;19.10;99.90
5689;DHT22;2869;50.432;8.680;2023-07-13T05:55:41;19.30;99.90
5689;DHT22;2869;50.432;8.680;2023-07-13T05:58:09;19.60;99.90
5689;DHT22;2869;50.432;8.680;2023-07-13T06:00:36;19.80;99.90
5689;DHT22;2869;50.432;8.680;2023-07-13T06:03:02;19.90;99.90
5689;DHT22;2869;50.432;8.680;2023-07-13T06:05:29;19.90;99.90
5689;DHT22;2869;50.432;8.680;2023-07-13T06:07:56;20.00;99.90
5689;DHT22;2869;50.432;8.680;2023-07-13T06:10:22;20.10;99.90
5689;DHT22;2869;50.432;8.680;2023-07-13T06:12:49;20.20;99.90
5689;DHT22;2869;50.432;8.680;2023-07-13T06:15:18;20.40;99.90
5689;DHT22;2869;50.432;8.680;2023-07-13T06:17:45;20.70;99.90
5689;DHT22;2869;50.432;8.680;2023-07-13T06:20:12;20.90;99.90
5689;DHT22;2869;50.432;8.680;2023-07-13T06:22:38;20.70;99.90
5689;DHT22;2869;50.432;8.680;2023-07-13T06:25:06;20.70;99.90
5689;DHT22;2869;50.432;8.680;2023-07-13T06:27:33;20.70;99.90
5689;DHT22;2869;50.432;8.680;2023-07-13T06:30:00;20.60;99.90
5689;DHT22;2869;50.432;8.680;2023-07-13T06:32:28;20.70;99.90
5689;DHT22;2869;50.432;8.680;2023-07-13T06:34:54;20.60;99.90
5689;DHT22;2869;50.432;8.680;2023-07-13T06:37:21;20.50;99.90
5689;DHT22;2869;50.432;8.680;2023-07-13T06:39:48;20.40;99.90
5689;DHT22;2869;50.432;8.680;2023-07-13T06:42:16;20.40;99.90
5689;DHT22;2869;50.432;8.680;2023-07-13T06:44:42;20.50;99.90
5689;DHT22;2869;50.432;8.680;2023-07-13T06:47:09;20.60;99.90
5689;DHT22;2869;50.432;8.680;2023-07-13T06:49:37;20.70;99.90
5689;DHT22;2869;50.432;8.680;2023-07-13T06:52:05;21.00;99.90
5689;DHT22;2869;50.432;8.680;2023-07-13T06:54:31;21.20;99.90
5689;DHT22;2869;50.432;8.680;2023-07-13T06:56:58;21.40;99.90
5689;DHT22;2869;50.432;8.680;2023-07-13T06:59:25;21.60;99.90
5689;DHT22;2869;50.432;8.680;2023-07-13T07:01:51;21.80;99.90
5689;DHT22;2869;50.432;8.680;2023-07-13T07:04:18;22.00;99.90
5689;DHT22;2869;50.432;8.680;2023-07-13T07:06:47;22.00;99.90
5689;DHT22;2869;50.432;8.680;2023-07-13T07:09:13;22.00;99.90
5689;DHT22;2869;50.432;8.680;2023-07-13T07:11:42;22.10;99.90
5689;DHT22;2869;50.432;8.680;2023-07-13T07:14:09;22.30;99.90
5689;DHT22;2869;50.432;8.680;2023-07-13T07:16:35;22.50;99.90
5689;DHT22;2869;50.432;8.680;2023-07-13T07:19:02;22.70;99.90
5689;DHT22;2869;50.432;8.680;2023-07-13T07:21:28;22.80;99.90
5689;DHT22;2869;50.432;8.680;2023-07-13T07:23:58;22.60;99.90
5689;DHT22;2869;50.432;8.680;2023-07-13T07:26:25;22.20;99.90
5689;DHT22;2869;50.432;8.680;2023-07-13T07:28:51;22.40;99.90
5689;DHT22;2869;50.432;8.680;2023-07-13T07:31:18;22.50;99.90
5689;DHT22;2869;50.432;8.680;2023-07-13T07:33:45;22.60;99.90
5689;DHT22;2869;50.432;8.680;2023-07-13T07:36:12;22.70;99.90
5689;DHT22;2869;50.432;8.680;2023-07-13T07:38:38;22.50;99.90
5689;DHT22;2869;50.432;8.680;2023-07-13T07:41:06;22.30;99.90
5689;DHT22;2869;50.432;8.680;2023-07-13T07:43:33;22.30;99.90
5689;DHT22;2869;50.432;8.680;2023-07-13T07:45:59;22.20;99.90
5689;DHT22;2869;50.432;8.680;2023-07-13T07:48:26;22.30;99.90
5689;DHT22;2869;50.432;8.680;2023-07-13T07:50:53;22.10;99.90
5689;DHT22;2869;50.432;8.680;2023-07-13T07:53:19;22.20;99.90
5689;DHT22;2869;50.432;8.680;2023-07-13T07:55:46;22.50;99.90
5689;DHT22;2869;50.432;8.680;2023-07-13T07:58:15;22.80;99.90
5689;DHT22;2869;50.432;8.680;2023-07-13T08:00:41;23.00;99.90
5689;DHT22;2869;50.432;8.680;2023-07-13T08:03:08;22.80;99.90
5689;DHT22;2869;50.432;8.680;2023-07-13T08:05:35;22.50;99.90
5689;DHT22;2869;50.432;8.680;2023-07-13T08:08:02;22.40;99.90
5689;DHT22;2869;50.432;8.680;2023-07-13T08:10:29;22.40;99.90
5689;DHT22;2869;50.432;8.680;2023-07-13T08:12:55;22.60;99.90
5689;DHT22;2869;50.432;8.680;2023-07-13T08:15:23;22.90;99.90
5689;DHT22;2869;50.432;8.680;2023-07-13T08:17:50;23.30;99.90
5689;DHT22;2869;50.432;8.680;2023-07-13T08:20:17;23.00;99.90
5689;DHT22;2869;50.432;8.680;2023-07-13T08:22:43;22.90;99.90
5689;DHT22;2869;50.432;8.680;2023-07-13T08:25:10;23.00;99.90
5689;DHT22;2869;50.432;8.680;2023-07-13T08:27:37;22.80;99.90
5689;DHT22;2869;50.432;8.680;2023-07-13T08:30:04;22.70;99.90
5689;DHT22;2869;50.432;8.680;2023-07-13T08:32:36;22.30;99.90
5689;DHT22;2869;50.432;8.680;2023-07-13T08:35:04;22.20;99.90
5689;DHT22;2869;50.432;8.680;2023-07-13T08:37:30;22.30;99.90
5689;DHT22;2869;50.432;8.680;2023-07-13T08:39:57;22.40;99.90
5689;DHT22;2869;50.432;8.680;2023-07-13T08:42:33;22.40;99.90
5689;DHT22;2869;50.432;8.680;2023-07-13T08:45:08;22.50;99.90
5689;DHT22;2869;50.432;8.680;2023-07-13T08:47:44;22.40;99.90
5689;DHT22;2869;50.432;8.680;2023-07-13T08:50:13;22.80;99.90
5689;DHT22;2869;50.432;8.680;2023-07-13T08:52:42;22.80;99.90
5689;DHT22;2869;50.432;8.680;2023-07-13T08:55:13;22.90;99.90
5689;DHT22;2869;50.432;8.680;2023-07-13T08:57:42;22.90;99.90
5689;DHT22;2869;50.432;8.680;2023-07-13T09:00:11;23.00;99.90
5689;DHT22;2869;50.432;8.680;2023-07-13T09:02:45;23.30;99.90
5689;DHT22;2869;50.432;8.680;2023-07-13T09:05:14;23.50;99.90
5689;DHT22;2869;50.432;8.680;2023-07-13T09:07:58;23.70;99.90
5689;DHT22;2869;50.432;8.680;2023-07-13T09:10:29;23.50;99.90
5689;DHT22;2869;50.432;8.680;2023-07-13T09:13:08;23.90;99.90
5689;DHT22;2869;50.432;8.680;2023-07-13T09:15:44;24.30;99.90
5689;DHT22;2869;50.432;8.680;2023-07-13T09:18:16;24.60;99.90
5689;DHT22;2869;50.432;8.680;2023-07-13T09:20:48;24.10;99.90
5689;DHT22;2869;50.432;8.680;2023-07-13T09:23:19;23.70;99.90
5689;DHT22;2869;50.432;8.680;2023-07-13T09:25:48;23.80;99.90
5689;DHT22;2869;50.432;8.680;2023-07-13T09:28:19;23.60;99.90
5689;DHT22;2869;50.432;8.680;2023-07-13T09:30:51;23.60;99.90
5689;DHT22;2869;50.432;8.680;2023-07-13T09:33:20;23.60;99.90
5689;DHT22;2869;50.432;8.680;2023-07-13T09:35:48;23.50;99.90
5689;DHT22;2869;50.432;8.680;2023-07-13T09:38:18;23.60;99.90
5689;DHT22;2869;50.432;8.680;2023-07-13T09:40:59;23.80;99.90
5689;DHT22;2869;50.432;8.680;2023-07-13T09:43:27;23.60;99.90
5689;DHT22;2869;50.432;8.680;2023-07-13T09:45:55;23.60;99.90
5689;DHT22;2869;50.432;8.680;2023-07-13T09:48:23;23.60;99.90
5689;DHT22;2869;50.432;8.680;2023-07-13T09:50:54;23.90;99.90
5689;DHT22;2869;50.432;8.680;2023-07-13T09:53:22;24.40;99.90
5689;DHT22;2869;50.432;8.680;2023-07-13T09:55:49;24.70;99.90
5689;DHT22;2869;50.432;8.680;2023-07-13T09:58:17;24.60;99.90
5689;DHT22;2869;50.432;8.680;2023-07-13T10:00:57;25.00;99.90
5689;DHT22;2869;50.432;8.680;2023-07-13T10:03:27;25.00;99.90
5689;DHT22;2869;50.432;8.680;2023-07-13T10:06:01;25.20;99.90
5689;DHT22;2869;50.432;8.680;2023-07-13T10:08:35;25.00;99.90
5689;DHT22;2869;50.432;8.680;2023-07-13T10:11:10;25.30;99.90
5689;DHT22;2869;50.432;8.680;2023-07-13T10:13:40;25.30;99.90
5689;DHT22;2869;50.432;8.680;2023-07-13T10:16:09;25.30;99.90
5689;DHT22;2869;50.432;8.680;2023-07-13T10:18:41;25.10;99.90
5689;DHT22;2869;50.432;8.680;2023-07-13T10:21:12;25.20;99.90
5689;DHT22;2869;50.432;8.680;2023-07-13T10:23:39;25.20;99.90
5689;DHT22;2869;50.432;8.680;2023-07-13T10:26:13;25.00;99.90
5689;DHT22;2869;50.432;8.680;2023-07-13T10:28:41;24.50;99.90
5689;DHT22;2869;50.432;8.680;2023-07-13T10:31:14;24.90;99.90
5689;DHT22;2869;50.432;8.680;2023-07-13T10:33:43;24.90;99.90
5689;DHT22;2869;50.432;8.680;2023-07-13T10:36:16;24.90;99.90
5689;DHT22;2869;50.432;8.680;2023-07-13T10:38:46;24.80;99.90
5689;DHT22;2869;50.432;8.680;2023-07-13T10:41:17;24.90;99.90
5689;DHT22;2869;50.432;8.680;2023-07-13T10:43:47;25.10;99.90
5689;DHT22;2869;50.432;8.680;2023-07-13T10:46:18;25.60;99.90
5689;DHT22;2869;50.432;8.680;2023-07-13T10:48:48;25.40;99.90
5689;DHT22;2869;50.432;8.680;2023-07-13T10:51:18;25.30;99.90
5689;DHT22;2869;50.432;8.680;2023-07-13T10:53:47;25.30;99.90
5689;DHT22;2869;50.432;8.680;2023-07-13T10:56:23;25.20;99.90
5689;DHT22;2869;50.432;8.680;2023-07-13T10:59:02;25.40;99.90
5689;DHT22;2869;50.432;8.680;2023-07-13T11:01:39;26.10;99.90
5689;DHT22;2869;50.432;8.680;2023-07-13T11:04:12;26.60;99.60
5689;DHT22;2869;50.432;8.680;2023-07-13T11:06:48;26.60;99.70
5689;DHT22;2869;50.432;8.680;2023-07-13T11:09:31;26.70;98.60
5689;DHT22;2869;50.432;8.680;2023-07-13T11:11:59;26.90;99.30
5689;DHT22;2869;50.432;8.680;2023-07-13T11:14:30;27.00;99.20
5689;DHT22;2869;50.432;8.680;2023-07-13T11:16:57;26.90;99.90
5689;DHT22;2869;50.432;8.680;2023-07-13T11:19:38;27.10;99.40
5689;DHT22;2869;50.432;8.680;2023-07-13T11:22:41;27.40;98.40
5689;DHT22;2869;50.432;8.680;2023-07-13T11:25:25;27.40;98.50
5689;DHT22;2869;50.432;8.680;2023-07-13T11:28:06;27.40;97.80
5689;DHT22;2869;50.432;8.680;2023-07-13T11:30:37;27.50;98.00
5689;DHT22;2869;50.432;8.680;2023-07-13T11:33:15;28.00;96.60
5689;DHT22;2869;50.432;8.680;2023-07-13T11:35:51;28.30;96.10
5689;DHT22;2869;50.432;8.680;2023-07-13T11:38:21;28.80;97.60
5689;DHT22;2869;50.432;8.680;2023-07-13T11:40:51;28.70;96.90
5689;DHT22;2869;50.432;8.680;2023-07-13T11:43:20;28.40;96.10
5689;DHT22;2869;50.432;8.680;2023-07-13T11:45:49;27.90;96.40
5689;DHT22;2869;50.432;8.680;2023-07-13T11:48:24;27.40;96.60
5689;DHT22;2869;50.432;8.680;2023-07-13T11:50:58;27.00;97.10
5689;DHT22;2869;50.432;8.680;2023-07-13T11:53:28;26.60;97.40
5689;DHT22;2869;50.432;8.680;2023-07-13T11:55:56;26.40;97.00
5689;DHT22;2869;50.432;8.680;2023-07-13T11:58:25;26.30;97.20
5689;DHT22;2869;50.432;8.680;2023-07-13T12:00:53;26.00;96.70
5689;DHT22;2869;50.432;8.680;2023-07-13T12:03:24;25.50;97.20
5689;DHT22;2869;50.432;8.680;2023-07-13T12:06:03;25.30;97.70
5689;DHT22;2869;50.432;8.680;2023-07-13T12:08:32;25.00;98.10
5689;DHT22;2869;50.432;8.680;2023-07-13T12:11:09;25.00;99.00
5689;DHT22;2869;50.432;8.680;2023-07-13T12:13:38;25.40;98.80
5689;DHT22;2869;50.432;8.680;2023-07-13T12:16:15;25.70;98.50
5689;DHT22;2869;50.432;8.680;2023-07-13T12:18:43;26.00;98.40
5689;DHT22;2869;50.432;8.680;2023-07-13T12:21:17;26.10;96.90
5689;DHT22;2869;50.432;8.680;2023-07-13T12:23:45;25.80;97.40
5689;DHT22;2869;50.432;8.680;2023-07-13T12:26:15;25.70;97.20
5689;DHT22;2869;50.432;8.680;2023-07-13T12:28:46;25.50;97.20
5689;DHT22;2869;50.432;8.680;2023-07-13T12:31:25;25.20;96.90
5689;DHT22;2869;50.432;8.680;2023-07-13T12:34:00;25.40;97.80
5689;DHT22;2869;50.432;8.680;2023-07-13T12:36:32;25.60;97.60
5689;DHT22;2869;50.432;8.680;2023-07-13T12:39:05;25.60;97.50
5689;DHT22;2869;50.432;8.680;2023-07-13T12:41:37;25.90;97.30
5689;DHT22;2869;50.432;8.680;2023-07-13T12:44:05;26.20;97.80
5689;DHT22;2869;50.432;8.680;2023-07-13T12:46:34;26.20;96.90
5689;DHT22;2869;50.432;8.680;2023-07-13T12:49:06;26.40;96.90
5689;DHT22;2869;50.432;8.680;2023-07-13T12:51:37;26.40;97.00
5689;DHT22;2869;50.432;8.680;2023-07-13T12:54:15;26.20;96.20
5689;DHT22;2869;50.432;8.680;2023-07-13T12:56:42;26.00;96.20
5689;DHT22;2869;50.432;8.680;2023-07-13T12:59:16;26.00;96.20
5689;DHT22;2869;50.432;8.680;2023-07-13T13:01:46;26.10;96.00
5689;DHT22;2869;50.432;8.680;2023-07-13T13:04:12;26.00;96.10
5689;DHT22;2869;50.432;8.680;2023-07-13T13:06:41;26.00;95.70
5689;DHT22;2869;50.432;8.680;2023-07-13T13:09:12;25.90;95.60
5689;DHT22;2869;50.432;8.680;2023-07-13T13:11:39;25.90;96.60
5689;DHT22;2869;50.432;8.680;2023-07-13T13:14:06;26.00;95.90
5689;DHT22;2869;50.432;8.680;2023-07-13T13:16:35;25.70;95.80
5689;DHT22;2869;50.432;8.680;2023-07-13T13:19:13;25.50;95.70
5689;DHT22;2869;50.432;8.680;2023-07-13T13:21:42;25.20;96.00
5689;DHT22;2869;50.432;8.680;2023-07-13T13:24:11;25.20;96.30
5689;DHT22;2869;50.432;8.680;2023-07-13T13:26:38;25.30;96.40
5689;DHT22;2869;50.432;8.680;2023-07-13T13:29:11;25.30;96.50
5689;DHT22;2869;50.432;8.680;2023-07-13T13:31:39;25.30;97.10
5689;DHT22;2869;50.432;8.680;2023-07-13T13:34:08;25.30;97.00
5689;DHT22;2869;50.432;8.680;2023-07-13T13:36:35;25.40;97.40
5689;DHT22;2869;50.432;8.680;2023-07-13T13:39:10;25.20;97.10
5689;DHT22;2869;50.432;8.680;2023-07-13T13:41:42;25.30;97.60
5689;DHT22;2869;50.432;8.680;2023-07-13T13:44:09;25.60;96.80
5689;DHT22;2869;50.432;8.680;2023-07-13T13:46:36;25.80;96.60
5689;DHT22;2869;50.432;8.680;2023-07-13T13:49:03;25.70;96.80
5689;DHT22;2869;50.432;8.680;2023-07-13T13:51:30;25.50;96.60
5689;DHT22;2869;50.432;8.680;2023-07-13T13:53:56;25.30;97.00
5689;DHT22;2869;50.432;8.680;2023-07-13T13:56:25;25.00;96.80
5689;DHT22;2869;50.432;8.680;2023-07-13T13:58:52;25.00;96.70
5689;DHT22;2869;50.432;8.680;2023-07-13T14:01:20;24.90;97.10
5689;DHT22;2869;50.432;8.680;2023-07-13T14:03:47;25.00;97.30
5689;DHT22;2869;50.432;8.680;2023-07-13T14:06:17;24.80;96.70
5689;DHT22;2869;50.432;8.680;2023-07-13T14:08:43;24.80;96.50
5689;DHT22;2869;50.432;8.680;2023-07-13T14:11:12;24.90;96.40
5689;DHT22;2869;50.432;8.680;2023-07-13T14:13:44;24.80;96.60
5689;DHT22;2869;50.432;8.680;2023-07-13T14:16:15;24.90;96.70
5689;DHT22;2869;50.432;8.680;2023-07-13T14:18:43;24.80;96.90
5689;DHT22;2869;50.432;8.680;2023-07-13T14:21:12;24.60;96.80
5689;DHT22;2869;50.432;8.680;2023-07-13T14:23:40;24.50;97.00
5689;DHT22;2869;50.432;8.680;2023-07-13T14:26:11;24.70;98.00
5689;DHT22;2869;50.432;8.680;2023-07-13T14:28:43;25.00;97.90
5689;DHT22;2869;50.432;8.680;2023-07-13T14:31:10;25.20;97.20
5689;DHT22;2869;50.432;8.680;2023-07-13T14:33:36;25.20;97.30
5689;DHT22;2869;50.432;8.680;2023-07-13T14:36:09;25.20;97.00
5689;DHT22;2869;50.432;8.680;2023-07-13T14:38:39;24.90;96.50
5689;DHT22;2869;50.432;8.680;2023-07-13T14:41:07;24.80;97.30
5689;DHT22;2869;50.432;8.680;2023-07-13T14:43:34;24.90;96.60
5689;DHT22;2869;50.432;8.680;2023-07-13T14:46:02;24.90;96.90
5689;DHT22;2869;50.432;8.680;2023-07-13T14:48:29;25.10;97.10
5689;DHT22;2869;50.432;8.680;2023-07-13T14:50:58;25.20;97.00
5689;DHT22;2869;50.432;8.680;2023-07-13T14:53:26;25.30;96.90
5689;DHT22;2869;50.432;8.680;2023-07-13T14:55:53;25.30;96.90
5689;DHT22;2869;50.432;8.680;2023-07-13T14:58:20;25.30;96.70
5689;DHT22;2869;50.432;8.680;2023-07-13T15:00:46;25.20;96.00
5689;DHT22;2869;50.432;8.680;2023-07-13T15:03:19;24.90;95.80
5689;DHT22;2869;50.432;8.680;2023-07-13T15:05:47;24.60;96.10
5689;DHT22;2869;50.432;8.680;2023-07-13T15:08:15;24.40;97.00
5689;DHT22;2869;50.432;8.680;2023-07-13T15:10:42;24.50;97.40
5689;DHT22;2869;50.432;8.680;2023-07-13T15:13:17;24.60;97.60
5689;DHT22;2869;50.432;8.680;2023-07-13T15:15:46;24.80;97.60
5689;DHT22;2869;50.432;8.680;2023-07-13T15:18:16;24.90;97.90
5689;DHT22;2869;50.432;8.680;2023-07-13T15:20:45;25.00;97.30
5689;DHT22;2869;50.432;8.680;2023-07-13T15:23:13;25.00;97.90
5689;DHT22;2869;50.432;8.680;2023-07-13T15:25:41;25.00;97.70
5689;DHT22;2869;50.432;8.680;2023-07-13T15:28:09;25.10;97.80
5689;DHT22;2869;50.432;8.680;2023-07-13T15:30:49;25.20;97.50
5689;DHT22;2869;50.432;8.680;2023-07-13T15:33:20;25.20;97.40
5689;DHT22;2869;50.432;8.680;2023-07-13T15:35:48;25.40;97.10
5689;DHT22;2869;50.432;8.680;2023-07-13T15:38:18;25.30;96.50
5689;DHT22;2869;50.432;8.680;2023-07-13T15:40:46;25.10;97.00
5689;DHT22;2869;50.432;8.680;2023-07-13T15:43:15;25.30;97.50
5689;DHT22;2869;50.432;8.680;2023-07-13T15:45:42;25.50;97.10
5689;DHT22;2869;50.432;8.680;2023-07-13T15:48:13;25.60;96.70
5689;DHT22;2869;50.432;8.680;2023-07-13T15:50:44;25.60;96.60
5689;DHT22;2869;50.432;8.680;2023-07-13T15:53:11;25.60;96.60
5689;DHT22;2869;50.432;8.680;2023-07-13T15:55:38;25.50;96.40
5689;DHT22;2869;50.432;8.680;2023-07-13T15:58:10;25.30;96.50
5689;DHT22;2869;50.432;8.680;2023-07-13T16:00:37;25.20;96.50
5689;DHT22;2869;50.432;8.680;2023-07-13T16:03:05;25.00;96.80
5689;DHT22;2869;50.432;8.680;2023-07-13T16:05:31;25.10;96.60
5689;DHT22;2869;50.432;8.680;2023-07-13T16:08:00;25.10;96.10
5689;DHT22;2869;50.432;8.680;2023-07-13T16:10:31;25.10;96.50
5689;DHT22;2869;50.432;8.680;2023-07-13T16:12:59;25.30;96.30